createdAt,value
2023-04-10T03:36:59.629Z,11.57
2023-04-10T03:47:35.650Z,11.50
2023-04-10T03:58:14.497Z,11.02
2023-04-10T04:08:50.540Z,13.45
2023-04-10T04:19:33.222Z,13.60
2023-04-10T04:30:19.573Z,12.02
2023-04-10T04:41:17.624Z,10.85
2023-04-10T04:52:18.552Z,10.00
2023-04-10T05:03:21.224Z,11.98
2023-04-10T05:14:32.566Z,10.80
2023-04-10T05:25:17.013Z,10.40
2023-04-10T05:36:25.558Z,10.48
2023-04-10T05:47:18.220Z,11.38
2023-04-10T05:58:10.355Z,7.97
2023-04-10T06:09:05.440Z,6.57
2023-04-10T06:19:41.101Z,8.77
2023-04-10T06:30:17.055Z,7.05
2023-04-10T06:40:52.796Z,6.95
2023-04-10T06:51:28.361Z,6.22
2023-04-10T07:02:04.395Z,6.60
2023-04-10T07:12:40.104Z,6.80
2023-04-10T07:23:16.095Z,7.57
2023-04-10T07:33:51.823Z,5.20
2023-04-10T07:44:28.494Z,5.18
2023-04-10T07:55:04.649Z,6.38
2023-04-10T08:05:40.578Z,4.45
2023-04-10T08:16:16.318Z,7.53
2023-04-10T08:26:52.081Z,5.07
2023-04-10T08:37:27.958Z,3.72
2023-04-10T08:48:06.490Z,3.20
2023-04-10T08:58:42.902Z,3.50
2023-04-10T09:09:18.680Z,2.88
2023-04-10T09:19:55.942Z,2.58
2023-04-10T09:30:42.189Z,2.63
2023-04-10T09:41:17.640Z,2.53
2023-04-10T09:51:53.561Z,2.42
2023-04-10T10:02:31.003Z,2.15
2023-04-10T10:13:08.497Z,2.35
2023-04-10T10:23:45.930Z,2.72
2023-04-10T10:34:22.713Z,3.45
2023-04-10T10:45:12.193Z,3.63
2023-04-10T10:55:47.969Z,5.03
2023-04-10T11:06:51.228Z,4.05
2023-04-10T11:17:50.257Z,2.92
2023-04-10T11:28:32.287Z,2.83
2023-04-10T11:39:13.403Z,3.03
2023-04-10T11:49:55.709Z,3.70
2023-04-10T12:00:31.487Z,2.75
2023-04-10T12:11:09.346Z,3.00
2023-04-10T12:21:45.943Z,3.10
2023-04-10T12:32:22.312Z,3.92
2023-04-10T12:42:57.908Z,2.75
2023-04-10T12:53:43.842Z,3.65
2023-04-10T13:04:19.603Z,4.43
2023-04-10T13:14:56.111Z,2.85
2023-04-10T13:25:33.660Z,2.60
2023-04-10T13:36:09.578Z,1.98
2023-04-10T13:46:45.453Z,2.30
2023-04-10T13:57:20.955Z,2.15
2023-04-10T14:07:57.038Z,1.83
2023-04-10T14:18:32.747Z,2.15
2023-04-10T14:29:08.982Z,1.65
2023-04-10T14:39:44.412Z,1.67
2023-04-10T14:50:20.155Z,1.88
2023-04-10T15:00:55.849Z,1.40
2023-04-10T15:11:31.817Z,3.40
2023-04-10T15:22:07.594Z,2.30
2023-04-10T15:32:43.437Z,1.25
2023-04-10T15:43:19.272Z,1.38
2023-04-10T15:53:55.297Z,2.03
2023-04-10T16:04:31.495Z,6.60
2023-04-10T16:15:10.655Z,1.13
2023-04-10T16:25:46.290Z,1.30
2023-04-10T16:36:22.210Z,2.63
2023-04-10T16:46:57.987Z,1.85
2023-04-10T16:57:33.636Z,12.30
2023-04-10T17:08:09.030Z,3.20
2023-04-10T17:18:45.023Z,1.70
2023-04-10T17:29:20.668Z,1.95
2023-04-10T17:39:56.479Z,4.78
2023-04-10T17:50:32.613Z,2.53
2023-04-10T18:01:08.225Z,4.60
2023-04-10T18:11:44.127Z,2.42
2023-04-10T18:22:19.957Z,3.78
2023-04-10T18:32:55.808Z,2.90
2023-04-10T18:43:31.611Z,4.38
2023-04-10T18:54:07.073Z,3.30
2023-04-10T19:04:42.794Z,3.78
2023-04-10T19:15:18.647Z,2.83
2023-04-10T19:25:54.929Z,3.42
2023-04-10T19:36:31.121Z,3.40
2023-04-10T19:47:06.972Z,2.85
2023-04-10T19:57:42.200Z,2.53
2023-04-10T20:08:17.968Z,4.75
2023-04-10T20:18:54.995Z,7.93
2023-04-10T20:29:30.849Z,3.28
2023-04-10T20:40:07.389Z,2.50
2023-04-10T20:50:44.837Z,2.78
2023-04-10T21:01:20.617Z,3.88
2023-04-10T21:11:57.617Z,4.50
2023-04-10T21:22:33.409Z,7.18
